createdAt,value
2017-08-25T00:01:06.896Z,90.4
2017-08-25T00:02:14.368Z,90.4
2017-08-25T00:03:21.843Z,90.4
2017-08-25T00:04:29.322Z,90.3
2017-08-25T00:05:36.472Z,91
2017-08-25T00:06:44.260Z,90.5
2017-08-25T00:07:51.740Z,90.4
2017-08-25T00:08:59.218Z,90.7
2017-08-25T00:10:06.694Z,90.4
2017-08-25T00:11:13.838Z,90.5
2017-08-25T00:12:21.622Z,91.2
2017-08-25T00:13:29.099Z,91
2017-08-25T00:14:36.578Z,90.1
2017-08-25T00:15:44.059Z,90.2
2017-08-25T00:16:51.532Z,90.4
2017-08-25T00:17:59.358Z,90.4
2017-08-25T00:19:06.500Z,90.6
2017-08-25T00:20:13.979Z,90.4
2017-08-25T00:21:21.459Z,90.8
2017-08-25T00:22:28.941Z,90.4
2017-08-25T00:23:36.717Z,90.9
2017-08-25T00:24:44.197Z,90.7
2017-08-25T00:25:51.684Z,91.5
2017-08-25T00:26:58.831Z,90.9
2017-08-25T00:28:06.309Z,91.2
2017-08-25T00:29:14.085Z,91.4
2017-08-25T00:30:21.581Z,91.4
2017-08-25T00:31:29.061Z,91.7
2017-08-25T00:32:36.206Z,92.2
2017-08-25T00:33:43.689Z,92.1
2017-08-25T00:34:50.797Z,91.9
2017-08-25T00:35:58.276Z,91.8
2017-08-25T00:37:05.420Z,92.8
2017-08-25T00:38:12.897Z,92.9
2017-08-25T00:39:20.377Z,92.8
2017-08-25T00:40:28.206Z,92.5
2017-08-25T00:41:35.692Z,92.4
2017-08-25T00:42:43.166Z,91.9
2017-08-25T00:43:50.886Z,91.9
2017-08-25T00:44:58.361Z,91.7
2017-08-25T00:46:05.906Z,91.6
2017-08-25T00:47:13.386Z,91.5
2017-08-25T00:48:20.866Z,91.9
2017-08-25T00:49:28.013Z,91.7
2017-08-25T00:50:35.491Z,91.9
2017-08-25T00:51:43.328Z,92.2
2017-08-25T00:52:50.479Z,92.5
2017-08-25T00:53:57.957Z,92.5
2017-08-25T00:55:05.116Z,91.4
2017-08-25T00:56:12.265Z,91.6
2017-08-25T00:57:20.093Z,92.4
2017-08-25T00:58:27.575Z,92.4
2017-08-25T00:59:34.725Z,93.1
2017-08-25T01:00:42.200Z,93.5
2017-08-25T01:01:49.687Z,93.8
2017-08-25T01:02:57.519Z,93.5
2017-08-25T01:04:04.996Z,93.4
2017-08-25T01:05:12.473Z,93
2017-08-25T01:06:19.952Z,92.4
2017-08-25T01:07:27.431Z,93.6
2017-08-25T01:08:35.257Z,92.7
2017-08-25T01:09:42.742Z,93
2017-08-25T01:10:50.239Z,93.1
2017-08-25T01:11:57.722Z,92.8
2017-08-25T01:13:05.207Z,92.7
2017-08-25T01:14:13.038Z,92.7
2017-08-25T01:15:20.520Z,91.3
2017-08-25T01:16:27.996Z,92.4
2017-08-25T01:17:35.474Z,92.4
2017-08-25T01:18:42.952Z,91.9
2017-08-25T01:19:50.729Z,91.8
2017-08-25T01:20:58.210Z,92.6
2017-08-25T01:22:05.690Z,92.2
2017-08-25T01:23:13.179Z,92.4
2017-08-25T01:24:20.661Z,92.4
2017-08-25T01:25:28.442Z,92.3
2017-08-25T01:26:35.916Z,92.4
2017-08-25T01:27:43.392Z,92.4
2017-08-25T01:28:50.876Z,91.8
2017-08-25T01:29:58.021Z,92
2017-08-25T01:31:05.852Z,91.9
2017-08-25T01:32:13.003Z,91.5
2017-08-25T01:33:20.474Z,92.2
2017-08-25T01:34:27.952Z,91.5
2017-08-25T01:35:35.440Z,91.8
2017-08-25T01:36:43.268Z,92.1
2017-08-25T01:37:50.404Z,92.1
2017-08-25T01:38:57.890Z,92.1
2017-08-25T01:40:05.056Z,92
2017-08-25T01:41:12.533Z,92.1
2017-08-25T01:42:20.368Z,92.5
2017-08-25T01:43:27.849Z,92.2
2017-08-25T01:44:34.997Z,92.2
2017-08-25T01:45:42.468Z,92.1
2017-08-25T01:46:49.948Z,91.6
2017-08-25T01:47:57.824Z,91.6
2017-08-25T01:49:05.301Z,91.6
2017-08-25T01:50:12.775Z,91.8
2017-08-25T01:51:20.256Z,92.8
2017-08-25T01:52:27.728Z,92
2017-08-25T01:53:35.559Z,92.2
2017-08-25T01:54:43.040Z,92.1
2017-08-25T01:55:50.519Z,91.8
2017-08-25T01:56:57.993Z,92.1
2017-08-25T01:58:05.473Z,92.5
2017-08-25T01:59:13.302Z,92.5
2017-08-25T02:00:20.779Z,92
2017-08-25T02:01:28.253Z,91.9
2017-08-25T02:02:35.734Z,92.3
2017-08-25T02:03:42.880Z,92.2
2017-08-25T02:04:50.730Z,91.2
2017-08-25T02:05:57.876Z,91.5
2017-08-25T02:07:05.018Z,92.3
2017-08-25T02:08:12.499Z,92.4
2017-08-25T02:09:19.976Z,92.5
2017-08-25T02:10:27.810Z,92.6
2017-08-25T02:11:35.288Z,92.7
2017-08-25T02:12:42.768Z,92.4
2017-08-25T02:13:50.252Z,93
2017-08-25T02:14:57.401Z,93.3
2017-08-25T02:16:05.230Z,93.2
2017-08-25T02:17:12.705Z,93
2017-08-25T02:18:20.182Z,92.4
2017-08-25T02:19:27.672Z,92.4
2017-08-25T02:20:35.148Z,92
2017-08-25T02:21:42.996Z,91.3
2017-08-25T02:22:50.481Z,92.1
2017-08-25T02:23:57.961Z,92
2017-08-25T02:25:05.445Z,91.8
2017-08-25T02:26:12.923Z,92
2017-08-25T02:27:20.756Z,92.9
2017-08-25T02:28:28.231Z,91.8
2017-08-25T02:29:35.711Z,91.6
2017-08-25T02:30:42.860Z,92.1
2017-08-25T02:31:50.009Z,92.4
2017-08-25T02:32:57.838Z,92.2
2017-08-25T02:34:05.317Z,92.6
2017-08-25T02:35:12.802Z,92.4
2017-08-25T02:36:20.290Z,91.9
2017-08-25T02:37:27.780Z,92.4
2017-08-25T02:38:35.609Z,93.3
2017-08-25T02:39:43.093Z,93.7
2017-08-25T02:40:50.564Z,93.3
2017-08-25T02:41:58.042Z,93.3
2017-08-25T02:43:05.185Z,93.3
2017-08-25T02:44:13.013Z,93.4
2017-08-25T02:45:20.170Z,93.2
2017-08-25T02:46:27.647Z,92.8
2017-08-25T02:47:35.118Z,92.3
2017-08-25T02:48:42.602Z,92.4
2017-08-25T02:49:50.438Z,92.4
2017-08-25T02:50:57.923Z,92.6
2017-08-25T02:52:05.633Z,92.1
2017-08-25T02:53:13.112Z,92.4
2017-08-25T02:54:20.588Z,92.2
2017-08-25T02:55:28.412Z,92.4
2017-08-25T02:56:35.889Z,92
2017-08-25T02:57:43.369Z,92
2017-08-25T02:58:50.517Z,92.4
2017-08-25T02:59:58.003Z,92
2017-08-25T03:01:05.842Z,93.1
2017-08-25T03:02:13.323Z,93
2017-08-25T03:03:20.811Z,92.8
2017-08-25T03:04:27.966Z,91.9
2017-08-25T03:05:35.115Z,92.6
2017-08-25T03:06:42.941Z,92.8
2017-08-25T03:07:50.435Z,92.9
2017-08-25T03:08:57.920Z,91.9
2017-08-25T03:10:05.397Z,92.2
2017-08-25T03:11:12.880Z,91.5
2017-08-25T03:12:20.714Z,92
2017-08-25T03:13:28.196Z,91.6
2017-08-25T03:14:35.680Z,90.4
2017-08-25T03:15:43.159Z,92.5
2017-08-25T03:16:50.310Z,93.1
2017-08-25T03:17:58.081Z,92.8
2017-08-25T03:19:05.562Z,93
2017-08-25T03:20:13.065Z,92.7
2017-08-25T03:21:20.544Z,93
2017-08-25T03:22:28.024Z,91.7
2017-08-25T03:23:35.864Z,92
2017-08-25T03:24:43.344Z,91.3
2017-08-25T03:25:50.828Z,92.1
2017-08-25T03:26:58.311Z,92.5
2017-08-25T03:28:05.792Z,92.2
2017-08-25T03:29:13.578Z,92.9
2017-08-25T03:30:20.734Z,93.1
2017-08-25T03:31:28.214Z,93.2
2017-08-25T03:32:35.691Z,93.9
2017-08-25T03:33:43.177Z,94.4
2017-08-25T03:34:50.630Z,94.5
2017-08-25T03:35:58.110Z,94.2
2017-08-25T03:37:05.593Z,94.7
2017-08-25T03:38:13.084Z,94.4
2017-08-25T03:39:20.564Z,94.6
2017-08-25T03:40:28.334Z,94.7
2017-08-25T03:41:35.485Z,94.5
2017-08-25T03:42:42.961Z,94.3
2017-08-25T03:43:50.436Z,94.6
2017-08-25T03:44:57.590Z,94.6
2017-08-25T03:46:05.365Z,94.7
2017-08-25T03:47:12.841Z,94.5
2017-08-25T03:48:20.322Z,94.1
2017-08-25T03:49:27.800Z,94.2
2017-08-25T03:50:34.939Z,93.6
2017-08-25T03:51:42.419Z,93.7
2017-08-25T03:52:49.567Z,93.9
2017-08-25T03:53:57.044Z,93.3
2017-08-25T03:55:04.531Z,94.3
2017-08-25T03:56:11.675Z,93.9
2017-08-25T03:57:19.460Z,93.6
2017-08-25T03:58:26.938Z,93.6
2017-08-25T03:59:34.420Z,93.6
2017-08-25T04:00:41.787Z,93.3
2017-08-25T04:01:49.266Z,94.2
2017-08-25T04:02:57.036Z,94.3
2017-08-25T04:04:04.515Z,94
2017-08-25T04:05:11.996Z,94
2017-08-25T04:06:19.141Z,93.7
2017-08-25T04:07:26.295Z,93.9
2017-08-25T04:08:33.774Z,94.1
2017-08-25T04:09:41.249Z,94
2017-08-25T04:10:48.730Z,94.3
2017-08-25T04:11:56.226Z,94.4
2017-08-25T04:13:03.369Z,94.6
2017-08-25T04:14:11.148Z,94.3
2017-08-25T04:15:18.295Z,94.6
2017-08-25T04:16:25.767Z,94.1
2017-08-25T04:17:33.249Z,94.3
2017-08-25T04:18:40.728Z,94.2
2017-08-25T04:19:48.503Z,93.6
2017-08-25T04:20:55.987Z,93.3
2017-08-25T04:22:03.137Z,93.9
2017-08-25T04:23:10.626Z,93.3
2017-08-25T04:24:18.121Z,93.5
2017-08-25T04:25:25.901Z,93.5
2017-08-25T04:26:33.379Z,93.8
2017-08-25T04:27:40.856Z,93.6
2017-08-25T04:28:48.337Z,93.8
2017-08-25T04:29:55.813Z,94.1
2017-08-25T04:31:03.292Z,94.1
2017-08-25T04:32:10.769Z,94.4
2017-08-25T04:33:17.911Z,94.4
2017-08-25T04:34:25.052Z,93.8
2017-08-25T04:35:32.531Z,92.9
2017-08-25T04:36:40.305Z,92.9
2017-08-25T04:37:47.457Z,93.2
2017-08-25T04:38:54.933Z,92.8
2017-08-25T04:40:02.411Z,92.4
2017-08-25T04:41:09.556Z,93.3
2017-08-25T04:42:17.349Z,93.1
2017-08-25T04:43:24.818Z,92.6
2017-08-25T04:44:31.967Z,93.3
2017-08-25T04:45:39.448Z,93.4
2017-08-25T04:46:46.924Z,94.1
2017-08-25T04:47:54.708Z,93.4
2017-08-25T04:50:24.244Z,93.6
2017-08-25T04:51:31.716Z,93.2
2017-08-25T04:52:39.198Z,93.4
2017-08-25T04:53:46.975Z,93
2017-08-25T04:54:54.448Z,93.2
2017-08-25T04:56:01.934Z,92.8
2017-08-25T04:57:09.418Z,93.3
2017-08-25T04:58:16.926Z,93.3
2017-08-25T04:59:24.707Z,92.9
2017-08-25T05:00:32.183Z,93.2
2017-08-25T05:01:39.330Z,93.2
2017-08-25T05:02:46.818Z,92.9
2017-08-25T05:03:54.300Z,93.4
2017-08-25T05:05:02.089Z,93
2017-08-25T05:06:09.230Z,92.9
2017-08-25T05:07:16.726Z,92.5
2017-08-25T05:08:24.208Z,92.6
2017-08-25T05:09:31.689Z,92.6
2017-08-25T05:10:39.174Z,92.7
2017-08-25T05:11:46.325Z,93.1
2017-08-25T05:12:53.802Z,93.2
2017-08-25T05:14:01.285Z,92.8
2017-08-25T05:15:09.059Z,93.3
2017-08-25T05:16:16.544Z,93.2
2017-08-25T05:17:24.021Z,93.4
2017-08-25T05:18:31.163Z,93.1
2017-08-25T05:19:38.644Z,93.4
2017-08-25T05:20:46.424Z,93.4
2017-08-25T05:21:53.572Z,93.2
2017-08-25T05:23:01.062Z,93.3
2017-08-25T05:24:08.540Z,92.8
2017-08-25T05:25:15.685Z,92.5
2017-08-25T05:26:23.472Z,92.8
2017-08-25T05:27:30.952Z,93.1
2017-08-25T05:28:38.432Z,93.1
2017-08-25T05:29:45.910Z,93.3
2017-08-25T05:30:53.384Z,93.3
2017-08-25T05:32:00.511Z,93.3
2017-08-25T05:33:07.984Z,93.2
2017-08-25T05:34:15.471Z,93.4
2017-08-25T05:35:22.950Z,93.1
2017-08-25T05:36:30.102Z,92.7
2017-08-25T05:37:37.883Z,92.5
2017-08-25T05:38:45.403Z,92.4
2017-08-25T05:39:52.884Z,92.6
2017-08-25T05:41:00.365Z,92.7
2017-08-25T05:42:07.849Z,92.7
2017-08-25T05:43:15.310Z,92.5
2017-08-25T05:44:22.464Z,92.2
2017-08-25T05:45:29.952Z,92.5
2017-08-25T05:46:37.100Z,92
2017-08-25T05:47:44.576Z,92
2017-08-25T05:48:52.354Z,92.1
2017-08-25T05:49:59.834Z,92.2
2017-08-25T05:51:07.325Z,92.4
2017-08-25T05:52:14.802Z,92.3
2017-08-25T05:53:22.281Z,92.3
2017-08-25T05:54:29.423Z,92.5
2017-08-25T05:55:36.905Z,92.5
2017-08-25T05:56:44.401Z,92.5
2017-08-25T05:57:51.884Z,92.4
2017-08-25T05:58:59.360Z,92.5
2017-08-25T06:00:07.138Z,92.6
2017-08-25T06:01:14.622Z,92.5
2017-08-25T06:02:22.098Z,92.4
2017-08-25T06:03:29.576Z,92.2
2017-08-25T06:04:37.066Z,92.5
2017-08-25T06:05:44.847Z,92.4
2017-08-25T06:06:51.994Z,92.2
2017-08-25T06:07:59.478Z,92.2
2017-08-25T06:09:06.952Z,91.9
2017-08-25T06:10:14.434Z,92
2017-08-25T06:11:22.213Z,92
2017-08-25T06:12:29.691Z,91.8
2017-08-25T06:13:36.841Z,91.9
2017-08-25T06:14:43.999Z,91.7
2017-08-25T06:15:51.477Z,91.6
2017-08-25T06:16:59.258Z,91.6
2017-08-25T06:18:06.409Z,91.7
2017-08-25T06:19:13.883Z,91.3
2017-08-25T06:20:21.359Z,91.3
2017-08-25T06:21:28.839Z,91.5
2017-08-25T06:22:36.639Z,91.1
2017-08-25T06:23:44.121Z,91
2017-08-25T06:24:51.605Z,90.6
2017-08-25T06:25:59.112Z,90.6
2017-08-25T06:27:06.590Z,90.5
2017-08-25T06:28:14.372Z,90.5
2017-08-25T06:29:21.856Z,90.5
2017-08-25T06:30:28.997Z,90.5
2017-08-25T06:31:36.139Z,90.5
2017-08-25T06:32:43.292Z,90.3
2017-08-25T06:33:51.070Z,90.1
2017-08-25T06:34:58.551Z,90
2017-08-25T06:36:06.030Z,89.7
2017-08-25T06:37:13.178Z,89.9
2017-08-25T06:38:20.661Z,88.5
2017-08-25T06:39:27.777Z,89.4
2017-08-25T06:40:35.261Z,90
2017-08-25T06:41:42.741Z,90.2
2017-08-25T06:42:49.900Z,89.2
2017-08-25T06:43:57.378Z,89.7
2017-08-25T06:45:05.164Z,89.1
2017-08-25T06:46:12.645Z,87.9
2017-08-25T06:47:20.128Z,87.6
2017-08-25T06:48:27.613Z,88.1
2017-08-25T06:49:34.758Z,88.9
2017-08-25T06:50:42.535Z,89.2
2017-08-25T06:51:49.691Z,88
2017-08-25T06:52:57.176Z,87.5
2017-08-25T06:54:04.661Z,87.5
2017-08-25T06:55:12.132Z,86.9
2017-08-25T06:56:19.912Z,87.9
2017-08-25T06:57:27.057Z,87.7
2017-08-25T06:58:34.538Z,87.7
2017-08-25T06:59:42.029Z,87.3
2017-08-25T07:00:49.511Z,86.9
2017-08-25T07:01:57.295Z,86.1
2017-08-25T07:03:04.780Z,86.8
2017-08-25T07:04:12.265Z,86.2
2017-08-25T07:05:19.417Z,86.6
2017-08-25T07:06:26.901Z,87.4
2017-08-25T07:07:34.352Z,87.2
2017-08-25T07:08:41.840Z,85.5
2017-08-25T07:09:48.981Z,85.1
2017-08-25T07:10:56.471Z,85.6
2017-08-25T07:12:03.981Z,85.9
2017-08-25T07:13:11.762Z,84
2017-08-25T07:14:19.270Z,85.9
2017-08-25T07:15:26.763Z,85.7
2017-08-25T07:16:34.248Z,83.9
2017-08-25T07:17:41.747Z,83.4
2017-08-25T07:18:49.550Z,83.1
2017-08-25T07:19:56.692Z,82.2
2017-08-25T07:21:04.171Z,83.9
2017-08-25T07:22:11.652Z,82.3
2017-08-25T07:23:19.137Z,83.2
2017-08-25T07:24:26.933Z,82.2
2017-08-25T07:25:34.094Z,82.4
2017-08-25T07:26:41.249Z,82.6
2017-08-25T07:29:10.469Z,79.8
2017-08-25T07:30:18.251Z,78.1
2017-08-25T07:31:25.398Z,77.1
2017-08-25T07:32:32.886Z,78.9
2017-08-25T07:33:40.378Z,76.4
2017-08-25T07:34:47.856Z,76.3
2017-08-25T07:35:55.637Z,75.1
2017-08-25T07:37:03.139Z,75.1
2017-08-25T07:38:10.288Z,77.4
2017-08-25T07:39:17.779Z,78.1
2017-08-25T07:40:25.269Z,76.7
2017-08-25T07:41:33.054Z,76.6
2017-08-25T07:42:40.537Z,75.4
2017-08-25T07:43:48.022Z,73.5
2017-08-25T07:44:55.506Z,73.3
2017-08-25T07:46:02.991Z,73
2017-08-25T07:47:10.776Z,71.9
2017-08-25T07:48:18.267Z,69.5
2017-08-25T07:49:25.745Z,71.3
2017-08-25T07:50:33.228Z,69.3
2017-08-25T07:51:40.715Z,68.6
2017-08-25T07:52:48.177Z,70.5
2017-08-25T07:53:55.659Z,68.8
2017-08-25T07:55:03.158Z,68
2017-08-25T07:56:10.651Z,67.9
2017-08-25T07:57:18.136Z,70.2
2017-08-25T07:58:25.919Z,68.9
2017-08-25T07:59:33.408Z,68.5
2017-08-25T08:00:40.900Z,68.2
2017-08-25T08:01:48.383Z,69.7
2017-08-25T08:02:55.865Z,69.7
2017-08-25T08:04:03.655Z,69.8
2017-08-25T08:05:11.135Z,71.4
2017-08-25T08:06:18.639Z,70.3
2017-08-25T08:07:26.132Z,72.9
2017-08-25T08:08:33.632Z,73.4
2017-08-25T08:09:41.423Z,73
2017-08-25T08:10:48.236Z,69.9
2017-08-25T08:11:55.732Z,70
2017-08-25T08:13:03.218Z,70.9
2017-08-25T08:14:10.380Z,71.1
2017-08-25T08:15:18.163Z,69.2
2017-08-25T08:16:25.650Z,68.7
2017-08-25T08:17:33.128Z,65.9
2017-08-25T08:18:40.616Z,67.9
2017-08-25T08:19:48.099Z,67.3
2017-08-25T08:20:55.884Z,69.6
2017-08-25T08:22:03.046Z,68.5
2017-08-25T08:23:10.530Z,68
2017-08-25T08:24:18.042Z,67.2
2017-08-25T08:25:25.520Z,66.6
2017-08-25T08:26:33.301Z,66.6
2017-08-25T08:27:40.780Z,64.6
2017-08-25T08:28:47.929Z,66.7
2017-08-25T08:29:55.432Z,65.3
2017-08-25T08:31:02.916Z,66.8
2017-08-25T08:32:10.707Z,65.6
2017-08-25T08:33:18.191Z,63.9
2017-08-25T08:34:25.717Z,64
2017-08-25T08:35:33.200Z,63.6
2017-08-25T08:36:40.686Z,63.3
2017-08-25T08:37:48.475Z,63.9
2017-08-25T08:38:55.966Z,64.6
2017-08-25T08:40:03.464Z,64.2
2017-08-25T08:41:10.940Z,64.7
2017-08-25T08:42:18.423Z,61.8
2017-08-25T08:43:26.224Z,64.3
2017-08-25T08:44:33.702Z,63.3
2017-08-25T08:45:41.183Z,62.3
2017-08-25T08:46:48.331Z,62.4
2017-08-25T08:47:55.818Z,63.5
2017-08-25T08:49:03.268Z,63.6
2017-08-25T08:50:10.751Z,63.4
2017-08-25T08:51:18.257Z,62.4
2017-08-25T08:52:25.748Z,61.9
2017-08-25T08:53:33.235Z,61
2017-08-25T08:54:41.023Z,61.1
2017-08-25T08:55:48.519Z,59.1
2017-08-25T08:56:56.003Z,60
2017-08-25T08:58:03.487Z,60.4
2017-08-25T08:59:10.984Z,60.3
2017-08-25T09:00:18.766Z,62.3
2017-08-25T09:01:26.257Z,61.1
2017-08-25T09:02:33.406Z,62.7
2017-08-25T09:03:40.893Z,64.2
2017-08-25T09:04:48.402Z,63.5
2017-08-25T09:05:55.858Z,65.8
2017-08-25T09:07:03.346Z,61.4
2017-08-25T09:08:10.510Z,60.8
2017-08-25T09:09:17.997Z,61.9
2017-08-25T09:10:25.486Z,61.4
2017-08-25T09:11:33.293Z,57.6
2017-08-25T09:12:40.447Z,58.6
2017-08-25T09:13:47.934Z,60.4
2017-08-25T09:14:55.095Z,60.9
2017-08-25T09:16:02.247Z,58
2017-08-25T09:17:09.373Z,62
2017-08-25T09:18:16.520Z,61.2
2017-08-25T09:19:23.346Z,56.6
2017-08-25T09:20:30.496Z,56.1
2017-08-25T09:21:37.648Z,57.7
2017-08-25T09:22:45.106Z,60.9
2017-08-25T09:23:52.261Z,56.1
2017-08-25T09:24:59.774Z,54.5
2017-08-25T09:26:07.264Z,54.9
2017-08-25T09:27:14.747Z,55.8
2017-08-25T09:28:22.199Z,59.3
2017-08-25T09:29:29.354Z,60.2
2017-08-25T09:30:36.184Z,56.3
2017-08-25T09:31:43.356Z,57.3
2017-08-25T09:32:50.844Z,60.3
2017-08-25T09:33:57.963Z,54.8
2017-08-25T09:35:05.111Z,58.4
2017-08-25T09:36:12.273Z,56.4
2017-08-25T09:37:19.430Z,53.9
2017-08-25T09:38:26.579Z,56.3
2017-08-25T09:39:34.033Z,54.8
2017-08-25T09:40:40.859Z,54.5
2017-08-25T09:41:48.014Z,56.2
2017-08-25T09:42:55.165Z,52.3
2017-08-25T09:44:02.317Z,54.9
2017-08-25T09:45:10.107Z,58.4
2017-08-25T09:46:17.254Z,55.4
2017-08-25T09:47:24.746Z,58.4
2017-08-25T09:48:31.232Z,57.4
2017-08-25T09:49:38.389Z,56.4
2017-08-25T09:50:46.175Z,55.5
2017-08-25T09:51:53.349Z,53.2
2017-08-25T09:53:00.851Z,55
2017-08-25T09:54:08.337Z,55.6
2017-08-25T09:55:15.834Z,55.7
2017-08-25T09:56:23.619Z,55.9
2017-08-25T09:57:30.773Z,54.3
2017-08-25T09:58:38.272Z,52.7
2017-08-25T09:59:45.760Z,53.8
2017-08-25T10:00:52.923Z,56.5
2017-08-25T10:02:00.714Z,54.1
2017-08-25T10:03:08.245Z,51.8
2017-08-25T10:04:15.735Z,53.4
2017-08-25T10:05:23.221Z,49.5
2017-08-25T10:06:30.711Z,50.6
2017-08-25T10:07:38.510Z,48.5
2017-08-25T10:08:45.998Z,48.7
2017-08-25T10:09:53.157Z,49
2017-08-25T10:11:00.685Z,50.5
2017-08-25T10:12:08.172Z,50.6
2017-08-25T10:13:15.959Z,48.8
2017-08-25T10:14:23.443Z,50.3
2017-08-25T10:15:30.929Z,50.5
2017-08-25T10:16:38.086Z,51
2017-08-25T10:17:45.238Z,51
2017-08-25T10:18:53.078Z,51.2
2017-08-25T10:20:00.572Z,50
2017-08-25T10:21:08.064Z,50.1
2017-08-25T10:22:14.882Z,48.4
2017-08-25T10:23:22.370Z,52.4
2017-08-25T10:24:30.163Z,50.6
2017-08-25T10:25:37.669Z,50.9
2017-08-25T10:26:45.159Z,50.8
2017-08-25T10:27:52.654Z,50.2
2017-08-25T10:28:59.808Z,45.8
2017-08-25T10:30:07.650Z,47.5
2017-08-25T10:31:14.829Z,49.1
2017-08-25T10:32:22.330Z,51.5
2017-08-25T10:33:29.822Z,50.2
2017-08-25T10:34:37.310Z,47.5
2017-08-25T10:35:44.801Z,45.8
2017-08-25T10:36:52.293Z,47.9
2017-08-25T10:37:59.788Z,48.2
2017-08-25T10:39:07.274Z,46.1
2017-08-25T10:40:14.764Z,47.9
2017-08-25T10:41:22.254Z,46.5
2017-08-25T10:42:29.767Z,50.5
2017-08-25T10:43:38.072Z,48.1
2017-08-25T10:44:45.228Z,42.9
2017-08-25T10:45:53.027Z,47.1
2017-08-25T10:47:00.520Z,45.2
2017-08-25T10:48:08.012Z,47.4
2017-08-25T10:49:15.503Z,48.6
2017-08-25T10:50:22.992Z,46.7
2017-08-25T10:51:30.498Z,45.9
2017-08-25T10:52:37.989Z,48.1
2017-08-25T10:53:45.485Z,47.5
2017-08-25T10:54:52.632Z,48.3
2017-08-25T10:55:59.783Z,46.8
2017-08-25T10:57:07.622Z,48.5
2017-08-25T10:58:15.113Z,45.9
2017-08-25T10:59:22.599Z,49
2017-08-25T11:00:30.087Z,45.3
2017-08-25T11:01:37.574Z,45.9
2017-08-25T11:02:45.036Z,46.1
2017-08-25T11:03:52.522Z,46.7
2017-08-25T11:05:00.030Z,47.5
2017-08-25T11:06:07.514Z,48.5
2017-08-25T11:07:15.004Z,48.9
2017-08-25T11:08:22.800Z,51
2017-08-25T11:09:30.292Z,50.5
2017-08-25T11:10:37.799Z,49.6
2017-08-25T11:11:45.289Z,47.2
2017-08-25T11:12:52.781Z,49.5
2017-08-25T11:14:00.276Z,47.3
2017-08-25T11:15:07.768Z,48.9
2017-08-25T11:16:15.278Z,50
2017-08-25T11:17:22.776Z,49.5
2017-08-25T11:18:30.265Z,45.2
2017-08-25T11:19:37.755Z,47
2017-08-25T11:20:45.245Z,48.1
2017-08-25T11:21:53.032Z,48.7
2017-08-25T11:23:00.528Z,48.9
2017-08-25T11:24:08.018Z,47.8
2017-08-25T11:25:15.167Z,48.1
2017-08-25T11:26:22.865Z,46.5
2017-08-25T11:27:30.327Z,44.1
2017-08-25T11:28:37.817Z,45.2
2017-08-25T11:31:07.050Z,44.9
2017-08-25T11:32:14.540Z,47.8
2017-08-25T11:33:22.331Z,48.1
2017-08-25T11:34:29.822Z,45.5
2017-08-25T11:35:37.312Z,45.8
2017-08-25T11:36:44.802Z,45.8
2017-08-25T11:37:52.288Z,44.5
2017-08-25T11:39:00.081Z,46.8
2017-08-25T11:40:07.566Z,45.4
2017-08-25T11:41:15.059Z,46.9
2017-08-25T11:42:22.558Z,44.6
2017-08-25T11:43:30.053Z,45.9
2017-08-25T11:44:37.843Z,46.3
2017-08-25T11:45:45.335Z,47
2017-08-25T11:46:52.840Z,45.1
2017-08-25T11:47:59.660Z,45.4
2017-08-25T11:49:06.816Z,46.2
2017-08-25T11:50:14.610Z,44.3
2017-08-25T11:51:22.099Z,46.5
2017-08-25T11:52:29.596Z,43.6
2017-08-25T11:53:37.090Z,46.2
2017-08-25T11:54:44.581Z,42.9
2017-08-25T11:55:52.373Z,45.4
2017-08-25T11:56:59.865Z,43.8
2017-08-25T11:58:07.351Z,44.9
2017-08-25T11:59:14.511Z,44.5
2017-08-25T12:00:22.007Z,45.5
2017-08-25T12:01:29.801Z,44.1
2017-08-25T12:02:37.297Z,45.8
2017-08-25T12:03:44.455Z,42.3
2017-08-25T12:04:51.951Z,42.7
2017-08-25T12:05:59.441Z,44.9
2017-08-25T12:07:07.234Z,43.9
2017-08-25T12:08:14.723Z,42.1
2017-08-25T12:09:21.880Z,45.2
2017-08-25T12:10:29.382Z,41.8
2017-08-25T12:11:36.867Z,44.2
2017-08-25T12:12:44.660Z,41.2
2017-08-25T12:13:52.147Z,41.5
2017-08-25T12:14:59.634Z,43.2
2017-08-25T12:16:07.126Z,44
2017-08-25T12:17:14.288Z,44.4
2017-08-25T12:18:21.746Z,45.5
2017-08-25T12:19:29.235Z,44.8
2017-08-25T12:20:36.726Z,44.1
2017-08-25T12:21:44.229Z,47.4
2017-08-25T12:22:51.956Z,45.7
2017-08-25T12:23:59.740Z,42.7
2017-08-25T12:25:07.235Z,41.6
2017-08-25T12:26:14.729Z,42.5
2017-08-25T12:27:22.222Z,44
2017-08-25T12:28:29.725Z,46.8
2017-08-25T12:29:37.508Z,44.9
2017-08-25T12:30:44.999Z,45.8
2017-08-25T12:31:52.156Z,46.8
2017-08-25T12:32:59.652Z,46.4
2017-08-25T12:34:07.147Z,45.7
2017-08-25T12:35:14.936Z,48.7
2017-08-25T12:36:22.425Z,45.9
2017-08-25T12:37:29.921Z,44.8
2017-08-25T12:38:37.418Z,46.9
2017-08-25T12:39:44.913Z,48.7
2017-08-25T12:40:52.722Z,46.9
2017-08-25T12:42:00.212Z,45.5
2017-08-25T12:43:07.374Z,46.3
2017-08-25T12:44:14.533Z,43
2017-08-25T12:45:22.028Z,47.2
2017-08-25T12:46:29.827Z,47.9
2017-08-25T12:47:37.322Z,43.9
2017-08-25T12:48:44.808Z,43
2017-08-25T12:49:52.310Z,43.1
2017-08-25T12:50:59.486Z,43
2017-08-25T12:52:07.274Z,45.5
2017-08-25T12:53:14.770Z,43.3
2017-08-25T12:54:21.927Z,44.1
2017-08-25T12:55:29.420Z,44.1
2017-08-25T12:56:36.916Z,46.6
2017-08-25T12:57:44.706Z,43
2017-08-25T12:58:51.769Z,43.5
2017-08-25T12:59:59.260Z,44.2
2017-08-25T13:01:06.752Z,47.1
2017-08-25T13:02:14.254Z,45.9
2017-08-25T13:03:21.705Z,45.8
2017-08-25T13:04:29.197Z,44.6
2017-08-25T13:05:36.688Z,42.6
2017-08-25T13:06:44.179Z,43.7
2017-08-25T13:07:51.667Z,44
2017-08-25T13:08:59.461Z,48.1
2017-08-25T13:10:06.531Z,45.1
2017-08-25T13:11:14.012Z,42.8
2017-08-25T13:12:21.177Z,43.1
2017-08-25T13:13:28.666Z,43.1
2017-08-25T13:14:36.132Z,43.1
2017-08-25T13:15:43.636Z,41.6
2017-08-25T13:16:50.786Z,43.2
2017-08-25T13:17:58.283Z,42
2017-08-25T13:19:05.776Z,43.5
2017-08-25T13:20:13.575Z,41.3
2017-08-25T13:21:21.072Z,40.3
2017-08-25T13:22:28.572Z,43.6
2017-08-25T13:23:36.063Z,42
2017-08-25T13:24:43.554Z,41.2
2017-08-25T13:25:51.346Z,43.6
2017-08-25T13:26:58.847Z,41.4
2017-08-25T13:28:06.013Z,44.5
2017-08-25T13:29:13.507Z,44.2
2017-08-25T13:30:20.998Z,43.6
2017-08-25T13:31:28.492Z,44.1
2017-08-25T13:32:35.645Z,40.5
2017-08-25T13:33:43.134Z,41.2
2017-08-25T13:34:50.623Z,40.5
2017-08-25T13:35:58.130Z,41.2
2017-08-25T13:37:05.924Z,41.3
2017-08-25T13:38:13.416Z,43.1
2017-08-25T13:39:20.914Z,42.6
2017-08-25T13:40:28.070Z,43
2017-08-25T13:41:35.225Z,42.1
2017-08-25T13:42:42.684Z,43.2
2017-08-25T13:43:49.850Z,44.2
2017-08-25T13:44:57.359Z,44.4
2017-08-25T13:46:04.839Z,43.7
2017-08-25T13:47:12.334Z,44.8
2017-08-25T13:48:20.126Z,44.5
2017-08-25T13:49:27.624Z,44.7
2017-08-25T13:50:35.113Z,41.2
2017-08-25T13:51:42.613Z,43.4
2017-08-25T13:52:50.102Z,41.1
2017-08-25T13:53:57.899Z,40.3
2017-08-25T13:55:05.395Z,41.4
2017-08-25T13:56:12.887Z,41.9
2017-08-25T13:57:20.374Z,42
2017-08-25T13:58:27.874Z,43.8
2017-08-25T13:59:35.670Z,48.8
2017-08-25T14:00:43.165Z,45.5
2017-08-25T14:01:50.653Z,46.5
2017-08-25T14:02:58.142Z,43.3
2017-08-25T14:04:05.643Z,41.6
2017-08-25T14:05:13.431Z,41.2
2017-08-25T14:06:20.923Z,41.2
2017-08-25T14:07:28.420Z,39.9
2017-08-25T14:08:35.915Z,41.9
2017-08-25T14:09:43.410Z,43.1
2017-08-25T14:10:50.240Z,41.9
2017-08-25T14:11:57.735Z,41.3
2017-08-25T14:13:05.229Z,42
2017-08-25T14:14:12.723Z,40.5
2017-08-25T14:15:19.880Z,39
2017-08-25T14:16:27.675Z,41.8
2017-08-25T14:17:35.171Z,39
2017-08-25T14:18:42.660Z,39.4
2017-08-25T14:19:50.153Z,38.3
2017-08-25T14:20:57.648Z,38.5
2017-08-25T14:22:05.445Z,39.5
2017-08-25T14:23:12.952Z,40.3
2017-08-25T14:24:20.116Z,42.4
2017-08-25T14:25:27.605Z,46.5
2017-08-25T14:26:35.103Z,43
2017-08-25T14:27:42.896Z,44.8
2017-08-25T14:28:50.387Z,40.7
2017-08-25T14:29:57.549Z,40.6
2017-08-25T14:31:05.046Z,41.9
2017-08-25T14:32:12.541Z,42.8
2017-08-25T14:33:20.334Z,42
2017-08-25T14:34:27.820Z,40.7
2017-08-25T14:35:35.323Z,39.9
2017-08-25T14:36:42.816Z,40.8
2017-08-25T14:37:49.982Z,42.7
2017-08-25T14:38:57.773Z,43.7
2017-08-25T14:40:05.270Z,44
2017-08-25T14:41:12.770Z,42.7
2017-08-25T14:42:19.928Z,41.8
2017-08-25T14:43:27.429Z,42.2
2017-08-25T14:44:35.227Z,40.6
2017-08-25T14:45:42.717Z,40.7
2017-08-25T14:46:50.216Z,40.2
2017-08-25T14:47:57.377Z,41.2
2017-08-25T14:49:04.864Z,40.7
2017-08-25T14:50:12.656Z,45.3
2017-08-25T14:51:20.154Z,40.8
2017-08-25T14:52:27.336Z,42.8
2017-08-25T14:53:34.501Z,40.8
2017-08-25T14:54:41.993Z,41.5
2017-08-25T14:55:49.783Z,42
2017-08-25T14:56:57.277Z,41.9
2017-08-25T14:58:04.772Z,42
2017-08-25T14:59:12.267Z,40.8
2017-08-25T15:00:19.758Z,41
2017-08-25T15:01:27.485Z,43.4
2017-08-25T15:02:34.977Z,40.8
2017-08-25T15:03:42.475Z,41.5
2017-08-25T15:04:49.969Z,41.7
2017-08-25T15:05:57.486Z,41.8
2017-08-25T15:07:05.278Z,42.1
2017-08-25T15:08:12.775Z,43.4